Time;durP1;ratioP1;P1;durP2;ratioP2;P2;SDS_P1;SDS_P2;PMS_P1;PMS_P2;Temp;Humidity;BMP_temperature;BMP_pressure;BME280_temperature;BME280_humidity;BME280_pressure;Samples;Min_cycle;Max_cycle;Signal;HPM_P1;HPM_P2
2022/11/16 00:02:03;;;;;;;4.75;3.42;;;;;;;8.99;52.83;100203.63;5019138;28;20052;-73
2022/11/16 00:04:28;;;;;;;4.60;2.50;;;;;;;9.03;52.65;100199.97;5020271;28;20033;-74
2022/11/16 00:06:54;;;;;;;10.10;3.38;;;;;;;8.98;52.63;100196.69;5005479;28;20255;-73
2022/11/16 00:09:22;;;;;;;5.40;3.40;;;;;;;9.01;52.54;100200.94;5020496;28;20119;-75
2022/11/16 00:11:50;;;;;;;7.75;3.42;;;;;;;8.98;52.44;100194.97;5019484;28;20024;-72
2022/11/16 00:14:16;;;;;;;8.18;4.10;;;;;;;8.99;52.42;100187.97;5023543;28;20128;-74
2022/11/16 00:16:42;;;;;;;7.63;3.58;;;;;;;8.88;52.75;100191.06;5022511;28;20079;-73
2022/11/16 00:19:10;;;;;;;7.80;3.75;;;;;;;8.93;52.68;100188.25;5021770;28;20557;-75
2022/11/16 00:21:35;;;;;;;6.63;3.65;;;;;;;8.84;52.89;100178.22;5015644;28;20071;-71
2022/11/16 00:24:01;;;;;;;6.13;3.53;;;;;;;8.68;53.38;100183.22;5011885;28;20160;-72
2022/11/16 00:26:27;;;;;;;4.78;3.75;;;;;;;8.78;53.07;100174.13;5018084;28;20263;-72
2022/11/16 00:28:53;;;;;;;5.72;3.20;;;;;;;8.69;53.32;100180.53;5024728;28;20044;-75
2022/11/16 00:31:19;;;;;;;7.30;3.22;;;;;;;8.66;53.43;100179.84;5019572;28;20044;-75
2022/11/16 00:33:45;;;;;;;7.05;3.33;;;;;;;8.60;53.58;100180.94;5018297;28;20333;-74
2022/11/16 00:36:12;;;;;;;5.75;2.85;;;;;;;8.78;53.42;100174.13;5019746;28;20038;-73
2022/11/16 00:38:39;;;;;;;11.13;3.90;;;;;;;8.63;53.77;100179.94;5014172;28;20283;-75
2022/11/16 00:41:05;;;;;;;5.45;3.20;;;;;;;8.77;53.45;100183.69;5016740;28;20037;-74
2022/11/16 00:43:31;;;;;;;5.28;3.45;;;;;;;8.81;53.36;100173.13;5007082;28;20102;-74
2022/11/16 00:45:56;;;;;;;5.47;3.35;;;;;;;8.65;53.82;100178.13;5020570;28;20032;-73
2022/11/16 00:48:22;;;;;;;7.32;3.47;;;;;;;8.59;53.77;100174.03;5017865;28;20052;-74
2022/11/16 00:50:47;;;;;;;8.13;4.10;;;;;;;8.61;53.98;100176.59;5019247;28;20498;-73
2022/11/16 00:53:17;;;;;;;4.47;2.97;;;;;;;8.63;53.61;100169.53;5000219;28;20044;-73
2022/11/16 00:55:44;;;;;;;6.60;3.53;;;;;;;8.73;53.38;100166.50;5015872;28;20063;-77
2022/11/16 00:58:12;;;;;;;4.35;3.80;;;;;;;8.83;52.94;100166.97;5015774;28;20519;-76
2022/11/16 01:00:40;;;;;;;8.10;4.03;;;;;;;8.60;53.89;100167.91;5016884;28;20048;-77
2022/11/16 01:03:06;;;;;;;8.18;3.80;;;;;;;8.66;53.65;100161.59;5018154;28;20044;-72
2022/11/16 01:05:32;;;;;;;8.07;3.10;;;;;;;8.54;53.84;100160.38;5016672;28;20033;-73
2022/11/16 01:07:57;;;;;;;5.47;3.33;;;;;;;8.74;53.20;100147.38;5014126;28;20254;-70
2022/11/16 01:10:24;;;;;;;7.30;3.28;;;;;;;8.68;53.62;100158.00;5017535;28;20035;-69
2022/11/16 01:12:51;;;;;;;7.88;3.65;;;;;;;8.68;53.77;100150.19;5014248;28;20503;-69
2022/11/16 01:15:18;;;;;;;7.95;3.42;;;;;;;8.65;53.81;100146.88;5015724;28;20297;-74
2022/11/16 01:17:44;;;;;;;3.65;2.83;;;;;;;8.51;54.03;100144.88;5015377;28;20485;-74
2022/11/16 01:20:18;;;;;;;6.05;3.10;;;;;;;8.63;53.98;100151.28;5014796;28;20055;-72
2022/11/16 01:22:44;;;;;;;4.85;2.83;;;;;;;8.68;53.52;100141.53;5015188;28;20037;-71
2022/11/16 01:25:11;;;;;;;6.43;3.53;;;;;;;8.56;53.93;100142.91;5016310;28;20040;-71
2022/11/16 01:27:36;;;;;;;4.65;3.15;;;;;;;8.45;54.36;100137.31;5015988;28;20267;-70
2022/11/16 01:30:06;;;;;;;4.57;2.92;;;;;;;8.50;54.44;100141.44;5009889;28;20025;-70
2022/11/16 01:32:35;;;;;;;5.47;2.75;;;;;;;8.17;55.22;100137.66;5015254;28;20071;-75
2022/11/16 01:35:01;;;;;;;5.00;3.63;;;;;;;8.39;55.02;100135.84;5010080;28;20120;-74
2022/11/16 01:37:30;;;;;;;5.88;2.88;;;;;;;8.35;55.06;100134.25;5015045;28;20056;-73
2022/11/16 01:39:55;;;;;;;4.93;2.80;;;;;;;8.26;55.41;100130.28;5016020;28;20707;-73
2022/11/16 01:42:25;;;;;;;4.03;2.85;;;;;;;8.20;55.49;100122.72;5001293;28;20086;-74
2022/11/16 01:44:58;;;;;;;7.82;3.03;;;;;;;8.21;55.45;100124.44;5000129;28;20099;-73
2022/11/16 01:47:24;;;;;;;6.28;2.90;;;;;;;8.15;56.20;100112.50;5014543;28;20057;-73
2022/11/16 01:50:01;;;;;;;7.07;3.85;;;;;;;7.98;56.44;100117.59;5001080;28;20025;-73
2022/11/16 01:52:32;;;;;;;9.65;3.13;;;;;;;8.04;56.45;100111.28;5014612;28;20045;-74
2022/11/16 01:54:59;;;;;;;6.72;4.22;;;;;;;7.99;56.65;100106.25;4997806;28;20148;-74
2022/11/16 01:57:36;;;;;;;8.75;4.63;;;;;;;8.21;56.08;100106.22;5014709;28;20104;-75
2022/11/16 02:00:08;;;;;;;5.20;2.55;;;;;;;7.99;56.74;100093.25;5018446;28;20049;-75
2022/11/16 02:02:46;;;;;;;4.75;3.33;;;;;;;8.08;56.55;100085.06;5003516;28;20041;-75
2022/11/16 02:05:43;;;;;;;7.07;3.55;;;;;;;8.04;56.74;100088.69;5015641;28;20044;-74
2022/11/16 02:11:38;;;;;;;8.98;3.65;;;;;;;7.95;56.89;100094.28;5015053;28;20091;-73
2022/11/16 02:14:32;;;;;;;5.53;3.13;;;;;;;8.10;56.46;100088.44;5004715;28;20201;-74
2022/11/16 02:17:23;;;;;;;7.63;2.95;;;;;;;8.04;56.73;100082.66;5017872;28;20380;-74
2022/11/16 02:20:07;;;;;;;4.43;3.28;;;;;;;8.09;56.58;100097.19;5010638;28;20044;-74
2022/11/16 02:22:54;;;;;;;6.45;3.58;;;;;;;8.17;56.17;100080.38;5012589;28;20057;-74
2022/11/16 02:25:30;;;;;;;6.85;2.85;;;;;;;8.26;56.03;100087.78;5011708;28;20033;-74
2022/11/16 02:28:19;;;;;;;6.07;2.80;;;;;;;8.15;56.07;100081.28;5017547;28;20143;-74
2022/11/16 02:30:49;;;;;;;10.60;2.97;;;;;;;8.31;55.89;100081.47;5021114;28;20088;-74
2022/11/16 02:33:19;;;;;;;6.32;2.90;;;;;;;8.27;55.92;100085.13;5021605;28;20489;-75
2022/11/16 02:35:53;;;;;;;8.40;3.25;;;;;;;8.26;55.84;100077.38;5012867;28;20409;-73
2022/11/16 02:38:25;;;;;;;6.30;3.88;;;;;;;8.28;55.53;100078.16;5004236;28;20345;-75
2022/11/16 02:41:14;;;;;;;5.15;3.05;;;;;;;8.08;56.37;100069.44;5011584;28;20029;-73
2022/11/16 02:43:44;;;;;;;5.82;2.95;;;;;;;8.26;55.93;100070.41;5010655;28;20099;-74
2022/11/16 02:46:24;;;;;;;7.22;3.28;;;;;;;7.98;56.73;100073.34;5004352;28;20146;-73
2022/11/16 02:48:53;;;;;;;4.13;3.03;;;;;;;8.12;56.27;100064.97;5016633;28;20513;-73
2022/11/16 02:51:20;;;;;;;6.72;3.28;;;;;;;7.95;56.59;100057.84;5017516;28;20456;-72
2022/11/16 02:53:59;;;;;;;7.03;3.63;;;;;;;7.90;56.85;100055.44;5017791;28;20458;-73
2022/11/16 02:56:27;;;;;;;6.70;2.90;;;;;;;8.09;56.25;100059.88;5017576;28;20036;-73
2022/11/16 02:58:53;;;;;;;3.72;3.35;;;;;;;8.02;56.39;100054.06;5018184;28;20060;-72
2022/11/16 03:01:28;;;;;;;5.05;2.47;;;;;;;7.88;56.98;100061.63;5019165;28;20033;-72
2022/11/16 03:04:01;;;;;;;5.50;2.50;;;;;;;8.02;56.78;100066.25;5018316;28;20049;-73
2022/11/16 03:06:30;;;;;;;4.97;3.15;;;;;;;7.81;57.36;100061.03;5017658;28;20200;-72
2022/11/16 03:09:05;;;;;;;8.57;2.55;;;;;;;7.66;57.79;100057.31;5017927;28;20056;-72
2022/11/16 03:14:22;;;;;;;6.20;3.10;;;;;;;7.74;57.41;100060.44;5019403;28;20055;-71
2022/11/16 03:16:52;;;;;;;3.55;2.45;;;;;;;7.47;58.00;100067.59;5015843;28;20069;-70
2022/11/16 03:19:31;;;;;;;5.50;3.08;;;;;;;7.52;57.88;100065.63;5018803;28;20025;-70
2022/11/16 03:22:01;;;;;;;6.82;3.10;;;;;;;7.35;58.34;100056.81;5004247;28;20554;-70
2022/11/16 03:24:28;;;;;;;7.78;3.55;;;;;;;7.24;58.46;100052.03;5017923;28;20058;-70
2022/11/16 03:27:12;;;;;;;4.68;3.08;;;;;;;7.36;58.47;100051.56;4999811;28;20437;-71
2022/11/16 03:29:45;;;;;;;5.22;2.78;;;;;;;7.21;58.89;100057.38;5022142;28;20118;-69
2022/11/16 03:32:22;;;;;;;5.55;3.20;;;;;;;7.28;58.72;100057.06;5010632;28;20643;-69
2022/11/16 03:34:58;;;;;;;5.18;2.58;;;;;;;7.25;58.57;100051.16;5018413;28;20033;-69
2022/11/16 03:37:26;;;;;;;5.00;2.67;;;;;;;7.35;58.26;100051.63;5000226;28;20041;-69
2022/11/16 03:39:52;;;;;;;13.00;3.28;;;;;;;7.37;58.19;100049.81;5018756;28;21006;-69
2022/11/16 03:42:20;;;;;;;4.72;3.88;;;;;;;7.29;58.55;100043.16;5009540;28;20051;-69
2022/11/16 03:44:48;;;;;;;7.32;3.22;;;;;;;7.58;57.69;100048.13;5018506;28;20029;-68
2022/11/16 03:47:13;;;;;;;5.60;3.08;;;;;;;7.42;58.02;100043.53;5018517;28;20061;-69
2022/11/16 03:49:46;;;;;;;4.75;3.05;;;;;;;7.41;58.21;100044.41;5018337;28;20047;-68
2022/11/16 03:52:15;;;;;;;4.68;3.53;;;;;;;7.21;58.82;100039.16;5001734;28;20330;-74
2022/11/16 03:54:41;;;;;;;5.95;3.20;;;;;;;7.06;59.20;100031.03;5012294;28;20029;-74
2022/11/16 03:57:14;;;;;;;4.78;3.25;;;;;;;7.20;58.67;100032.25;5017794;28;20052;-71
2022/11/16 03:59:42;;;;;;;6.95;3.65;;;;;;;7.46;57.77;100033.84;5019269;28;20110;-73
2022/11/16 04:02:08;;;;;;;6.60;3.70;;;;;;;7.30;58.55;100034.44;5006141;28;20558;-72
2022/11/16 04:29:15;;;;;;;6.75;3.95;;;;;;;6.71;60.48;100022.03;5019177;28;20052;-72
2022/11/16 04:40:01;;;;;;;9.20;5.05;;;;;;;6.82;60.28;100006.00;5019498;28;20037;-74
2022/11/16 04:42:27;;;;;;;8.35;5.05;;;;;;;6.57;60.73;100006.09;5019505;28;20056;-74
2022/11/16 04:47:50;;;;;;;10.77;4.80;;;;;;;6.50;61.24;99998.53;5015775;28;20486;-74
2022/11/16 04:50:18;;;;;;;10.23;7.00;;;;;;;6.72;60.51;100000.34;5016787;28;20030;-74
2022/11/16 04:52:44;;;;;;;9.52;6.53;;;;;;;6.62;60.65;100001.56;5016643;28;20154;-74
2022/11/16 04:55:12;;;;;;;14.65;6.55;;;;;;;6.73;60.14;100001.16;5011798;28;20521;-74
2022/11/16 04:57:38;;;;;;;9.65;5.43;;;;;;;6.50;60.72;100001.13;5013720;28;20075;-73
2022/11/16 05:00:05;;;;;;;9.63;6.85;;;;;;;6.56;61.05;100000.06;5019938;28;20159;-74
2022/11/16 05:02:33;;;;;;;20.00;7.15;;;;;;;6.78;60.04;99989.72;5014886;28;20041;-72
2022/11/16 05:05:00;;;;;;;8.57;5.38;;;;;;;6.70;60.14;99981.38;5007229;28;20026;-71
2022/11/16 05:07:27;;;;;;;11.18;5.50;;;;;;;6.43;61.22;99981.50;5002945;28;20297;-70
2022/11/16 05:10:02;;;;;;;12.32;7.15;;;;;;;6.33;61.34;99987.94;5019406;28;20029;-71
2022/11/16 05:12:29;;;;;;;13.68;6.85;;;;;;;6.46;61.11;99976.22;5016606;28;20918;-70
2022/11/16 05:14:58;;;;;;;12.98;7.30;;;;;;;6.50;61.00;99974.31;5016041;28;20742;-71
2022/11/16 05:17:27;;;;;;;11.80;7.00;;;;;;;6.29;61.38;99969.03;5008480;28;20605;-71
2022/11/16 05:22:57;;;;;;;13.48;6.97;;;;;;;6.08;62.22;99973.22;5007751;28;20792;-72
2022/11/16 05:25:27;;;;;;;15.52;7.22;;;;;;;5.98;62.06;99971.84;5017249;28;20155;-69
2022/11/16 05:27:53;;;;;;;14.27;7.10;;;;;;;6.28;61.66;99963.88;5017371;28;20658;-71
2022/11/16 05:30:18;;;;;;;15.32;8.40;;;;;;;6.17;61.72;99973.78;5003505;28;20021;-74
2022/11/16 05:32:44;;;;;;;15.35;8.68;;;;;;;6.23;61.72;99981.34;5018666;28;20128;-74
2022/11/16 05:35:11;;;;;;;16.63;8.27;;;;;;;6.25;61.51;99980.38;5003750;28;20167;-74
2022/11/16 05:37:37;;;;;;;17.00;8.65;;;;;;;6.43;61.32;99978.91;5019860;28;20048;-74
2022/11/16 05:40:03;;;;;;;13.30;8.38;;;;;;;6.24;61.53;99964.91;5004914;28;20057;-74
2022/11/16 05:42:39;;;;;;;15.93;8.05;;;;;;;6.28;61.15;99972.53;5004506;28;20107;-73
2022/11/16 05:45:06;;;;;;;13.27;7.65;;;;;;;6.33;61.11;99964.59;5016932;28;20167;-73
2022/11/16 05:47:32;;;;;;;15.85;8.27;;;;;;;5.95;61.99;99961.59;5019223;28;20048;-73
2022/11/16 05:49:58;;;;;;;18.73;8.95;;;;;;;6.01;62.02;99963.09;5001366;28;20029;-72
2022/11/16 05:52:27;;;;;;;19.13;9.57;;;;;;;6.19;61.34;99969.38;5002524;28;20107;-72
2022/11/16 05:54:58;;;;;;;14.67;7.13;;;;;;;6.27;61.29;99968.19;5020635;28;20199;-74
2022/11/16 05:57:26;;;;;;;17.70;8.45;;;;;;;6.19;61.27;99961.59;5008508;28;20044;-72
2022/11/16 05:59:51;;;;;;;17.15;9.07;;;;;;;6.21;61.51;99959.78;5012362;28;20275;-72
2022/11/16 06:02:17;;;;;;;19.88;9.45;;;;;;;5.98;62.02;99968.41;5025464;28;20488;-73
2022/11/16 06:04:42;;;;;;;18.55;8.98;;;;;;;5.98;62.06;99971.84;5026803;28;20577;-71
2022/11/16 06:07:08;;;;;;;15.88;8.73;;;;;;;5.94;62.54;99978.03;5024868;28;20136;-71
2022/11/16 06:09:34;;;;;;;19.35;9.73;;;;;;;5.79;62.75;99969.06;5021811;28;20091;-71
2022/11/16 06:12:10;;;;;;;19.83;9.75;;;;;;;6.09;62.10;99966.28;5021310;28;20494;-73
2022/11/16 06:14:36;;;;;;;23.55;10.88;;;;;;;6.14;61.77;99971.31;5023322;28;20144;-74
2022/11/16 06:17:03;;;;;;;20.88;11.40;;;;;;;6.01;62.34;99973.47;5023828;28;20145;-72
2022/11/16 06:19:29;;;;;;;21.50;10.55;;;;;;;6.03;62.29;99977.72;5023845;28;20492;-74
2022/11/16 06:21:55;;;;;;;24.38;12.90;;;;;;;5.91;62.51;99980.75;5014179;28;22106;-71
2022/11/16 06:24:23;;;;;;;26.52;12.10;;;;;;;5.65;63.21;99986.81;5021280;28;20521;-71
2022/11/16 06:26:48;;;;;;;24.98;13.05;;;;;;;5.90;62.48;99983.38;5021745;28;20025;-72
2022/11/16 06:29:14;;;;;;;24.98;11.90;;;;;;;6.00;61.90;99984.78;5025731;28;20022;-70
2022/11/16 06:31:40;;;;;;;25.25;12.77;;;;;;;5.60;63.27;99983.53;5023968;28;20909;-71
2022/11/16 06:34:05;;;;;;;24.40;12.93;;;;;;;5.74;63.11;99988.25;5025744;28;20037;-73
2022/11/16 06:36:32;;;;;;;27.30;13.32;;;;;;;5.99;62.49;99988.25;5024607;28;20044;-72
2022/11/16 06:39:02;;;;;;;25.38;13.65;;;;;;;5.97;62.35;99995.22;5023241;28;21066;-71
2022/11/16 06:41:31;;;;;;;25.85;12.45;;;;;;;5.67;63.45;99998.81;5011272;28;20089;-71
2022/11/16 06:43:57;;;;;;;21.65;12.63;;;;;;;5.74;62.95;99998.63;5002197;28;20172;-71
2022/11/16 06:46:29;;;;;;;31.02;14.30;;;;;;;5.77;62.83;99993.31;5008386;28;20043;-71
2022/11/16 06:48:56;;;;;;;28.17;13.63;;;;;;;5.74;63.04;99999.47;5005236;28;20671;-70
2022/11/16 06:51:21;;;;;;;33.33;13.88;;;;;;;5.65;62.93;99998.03;5005344;28;20120;-70
2022/11/16 06:53:47;;;;;;;29.85;12.95;;;;;;;5.82;62.82;100001.81;5011870;28;20194;-71
2022/11/16 06:56:14;;;;;;;31.67;15.63;;;;;;;5.84;62.75;100015.56;5007503;28;20043;-70
2022/11/16 06:58:45;;;;;;;23.52;12.63;;;;;;;5.65;63.09;99995.44;5019437;28;20092;-73
2022/11/16 07:01:13;;;;;;;31.52;14.30;;;;;;;5.70;63.24;100010.00;5007856;28;20037;-72
2022/11/16 07:03:40;;;;;;;28.20;13.85;;;;;;;5.83;62.77;100006.09;5010721;28;20037;-72
2022/11/16 07:06:10;;;;;;;34.88;14.90;;;;;;;5.67;63.02;100008.34;5018915;28;20616;-69
2022/11/16 07:08:38;;;;;;;27.13;13.07;;;;;;;5.71;62.75;100009.09;5017922;28;20038;-72
2022/11/16 07:11:06;;;;;;;30.58;13.77;;;;;;;5.77;63.03;100014.06;5020542;28;20250;-72
2022/11/16 07:13:33;;;;;;;30.98;14.32;;;;;;;5.48;64.09;100023.69;5017479;28;20042;-72
2022/11/16 07:16:06;;;;;;;25.92;13.95;;;;;;;5.72;63.41;100014.22;4996290;28;20340;-71
2022/11/16 07:18:37;;;;;;;29.77;15.07;;;;;;;5.85;63.05;100017.25;5020832;28;20048;-71
2022/11/16 07:21:08;;;;;;;29.13;12.97;;;;;;;5.82;62.90;100017.38;5020528;28;20597;-71
2022/11/16 07:23:35;;;;;;;22.83;13.40;;;;;;;5.70;63.21;100038.50;5018134;28;20288;-70
2022/11/16 07:26:05;;;;;;;33.08;14.68;;;;;;;5.83;63.15;100029.44;5011982;28;20201;-71
2022/11/16 07:28:40;;;;;;;33.72;14.90;;;;;;;5.76;63.34;100038.31;5012598;28;20041;-72
2022/11/16 07:31:08;;;;;;;27.95;14.60;;;;;;;5.85;63.24;100031.06;5021131;28;20487;-74
2022/11/16 07:33:34;;;;;;;25.00;12.93;;;;;;;5.77;63.47;100034.81;5011310;28;20501;-74
2022/11/16 07:36:15;;;;;;;25.67;13.40;;;;;;;5.69;63.32;100042.84;5020664;28;20056;-72
2022/11/16 07:38:41;;;;;;;25.85;12.80;;;;;;;5.97;62.87;100047.97;5012216;28;20397;-73
2022/11/16 07:41:16;;;;;;;30.23;13.85;;;;;;;5.98;62.52;100051.41;5006338;28;20037;-70
2022/11/16 07:43:52;;;;;;;24.80;13.95;;;;;;;5.90;62.82;100051.66;5019905;28;20384;-71
2022/11/16 07:46:24;;;;;;;33.97;13.75;;;;;;;5.91;62.51;100061.16;5006324;28;20026;-70
2022/11/16 07:48:50;;;;;;;28.77;13.63;;;;;;;5.80;63.22;100073.63;5010681;28;20221;-72
2022/11/16 07:51:17;;;;;;;33.30;14.60;;;;;;;5.78;62.90;100073.66;5007218;28;20131;-70
2022/11/16 07:53:54;;;;;;;30.35;15.32;;;;;;;5.73;63.50;100069.53;5007422;28;20041;-70
2022/11/16 07:56:20;;;;;;;30.67;14.20;;;;;;;5.76;62.89;100069.44;5019591;28;20136;-73
2022/11/16 07:58:47;;;;;;;28.40;14.05;;;;;;;5.73;63.22;100096.31;5016672;28;20069;-73
2022/11/16 08:01:14;;;;;;;31.08;14.65;;;;;;;5.61;63.92;100082.00;5011493;28;20431;-73
2022/11/16 08:03:43;;;;;;;27.23;14.27;;;;;;;5.77;63.24;100091.84;5005079;28;20053;-71
2022/11/16 08:06:26;;;;;;;27.70;15.30;;;;;;;5.85;63.09;100089.88;5018752;28;20435;-71
2022/11/16 08:08:54;;;;;;;26.60;13.98;;;;;;;5.89;62.74;100091.47;5015491;28;20086;-72
2022/11/16 08:11:20;;;;;;;28.65;15.02;;;;;;;5.76;63.15;100110.91;5017030;28;20029;-72
2022/11/16 08:13:46;;;;;;;29.73;15.63;;;;;;;5.92;62.68;100096.53;5017786;28;20052;-71
2022/11/16 08:16:14;;;;;;;27.23;14.13;;;;;;;6.01;62.63;100101.44;5022249;28;20469;-70
2022/11/16 08:18:41;;;;;;;31.92;14.75;;;;;;;5.74;62.89;100112.72;5021094;28;20433;-69
2022/11/16 08:21:08;;;;;;;28.90;14.38;;;;;;;5.82;63.05;100102.94;5012213;28;20229;-72
2022/11/16 08:23:34;;;;;;;29.80;14.55;;;;;;;6.04;62.50;100106.53;5002035;28;20142;-70
2022/11/16 08:26:08;;;;;;;26.98;12.93;;;;;;;6.10;62.37;100113.25;5013053;28;20661;-71
2022/11/16 08:28:35;;;;;;;29.13;14.43;;;;;;;6.15;61.99;100113.09;5014877;28;20044;-73
2022/11/16 08:31:08;;;;;;;28.95;13.30;;;;;;;5.86;62.97;100112.34;5004966;28;20751;-73
2022/11/16 08:33:34;;;;;;;23.92;13.63;;;;;;;6.14;62.36;100119.19;5015550;28;20143;-72
2022/11/16 08:36:03;;;;;;;26.42;15.10;;;;;;;6.03;62.35;100125.56;5016567;28;20689;-72
2022/11/16 08:38:29;;;;;;;26.88;13.30;;;;;;;5.98;62.67;100127.47;5014128;28;20057;-71
2022/11/16 08:40:56;;;;;;;24.77;12.88;;;;;;;5.59;63.84;100135.66;5004370;28;20167;-72
2022/11/16 08:43:23;;;;;;;24.67;11.82;;;;;;;5.59;64.01;100127.88;5012190;28;20322;-71
2022/11/16 08:45:48;;;;;;;30.67;12.20;;;;;;;6.07;62.56;100126.34;5017167;28;20103;-70
2022/11/16 08:48:14;;;;;;;26.15;13.00;;;;;;;5.81;62.88;100135.78;5016266;28;20044;-70
2022/11/16 08:50:40;;;;;;;20.77;12.98;;;;;;;5.79;63.33;100136.75;5016825;28;20103;-71
2022/11/16 08:53:14;;;;;;;24.83;12.80;;;;;;;5.86;63.10;100140.88;5010145;28;20684;-71
2022/11/16 08:55:41;;;;;;;24.38;12.35;;;;;;;5.80;63.10;100143.66;5018727;28;20025;-71
2022/11/16 08:58:07;;;;;;;26.80;13.45;;;;;;;5.75;63.20;100145.50;5010391;28;20421;-72
2022/11/16 09:00:33;;;;;;;21.52;12.45;;;;;;;5.70;63.66;100153.44;5020566;28;20041;-72
2022/11/16 09:02:59;;;;;;;24.25;12.13;;;;;;;5.97;62.53;100146.56;5019161;28;20098;-70
2022/11/16 09:05:24;;;;;;;25.85;13.48;;;;;;;5.69;63.14;100154.34;5019759;28;20036;-71
2022/11/16 09:07:50;;;;;;;23.08;12.48;;;;;;;6.04;62.16;100147.19;5017559;28;20120;-72
2022/11/16 09:10:17;;;;;;;22.45;11.43;;;;;;;5.91;62.50;100151.94;5018767;28;20464;-70
2022/11/16 09:12:43;;;;;;;24.85;12.25;;;;;;;5.41;63.89;100157.78;5017083;28;20131;-70
2022/11/16 09:15:09;;;;;;;19.80;10.85;;;;;;;5.74;63.15;100157.63;5013703;28;20120;-70
2022/11/16 09:17:34;;;;;;;20.25;11.15;;;;;;;5.82;62.64;100163.44;5018770;28;20048;-72
2022/11/16 09:20:00;;;;;;;20.80;11.27;;;;;;;6.09;61.84;100156.50;5008236;28;20033;-72
2022/11/16 09:22:25;;;;;;;18.60;11.15;;;;;;;5.87;62.42;100160.69;5020534;28;20045;-71
2022/11/16 09:24:51;;;;;;;21.75;11.27;;;;;;;6.08;62.00;100164.34;5015474;28;20415;-71
2022/11/16 09:27:16;;;;;;;16.98;9.88;;;;;;;6.21;61.42;100164.78;5018323;28;20054;-70
2022/11/16 09:29:42;;;;;;;20.00;10.13;;;;;;;6.28;61.48;100171.50;5016761;28;20662;-71
2022/11/16 09:32:07;;;;;;;22.42;11.52;;;;;;;6.17;61.77;100176.16;5012670;28;20045;-72
2022/11/16 09:34:34;;;;;;;21.13;10.82;;;;;;;5.69;62.84;100187.22;5028780;28;20040;-71
2022/11/16 09:37:00;;;;;;;19.05;10.48;;;;;;;5.77;62.83;100180.03;5020411;28;20976;-71
2022/11/16 09:39:31;;;;;;;18.02;10.05;;;;;;;5.51;63.09;100173.91;5023780;28;20037;-70
2022/11/16 09:42:14;;;;;;;16.50;9.60;;;;;;;5.63;63.11;100178.69;5021981;28;20209;-72
2022/11/16 09:44:46;;;;;;;16.55;10.60;;;;;;;6.08;62.05;100185.97;5019846;28;20033;-71
2022/11/16 09:47:20;;;;;;;18.10;9.68;;;;;;;6.01;62.08;100181.00;5020640;28;20128;-71
2022/11/16 09:49:53;;;;;;;18.20;10.05;;;;;;;5.80;62.54;100185.13;5022474;28;20652;-73
2022/11/16 09:52:45;;;;;;;17.67;9.43;;;;;;;6.00;62.46;100182.75;5022397;28;20046;-73
2022/11/16 09:55:31;;;;;;;18.07;10.23;;;;;;;5.90;62.19;100186.53;5007518;28;20108;-71
2022/11/16 09:58:00;;;;;;;19.13;9.20;;;;;;;6.07;61.95;100184.25;5023060;28;20344;-71
2022/11/16 10:00:28;;;;;;;21.83;10.88;;;;;;;6.07;61.65;100189.44;5021104;28;20041;-71
2022/11/16 10:03:09;;;;;;;21.55;10.73;;;;;;;6.02;62.10;100186.16;5005656;28;20067;-71
2022/11/16 10:05:42;;;;;;;15.20;9.13;;;;;;;5.69;63.28;100189.81;5020931;28;20040;-72
2022/11/16 10:08:42;;;;;;;15.40;8.77;;;;;;;6.00;62.12;100193.13;5024955;28;20075;-72
2022/11/16 10:11:10;;;;;;;14.90;8.48;;;;;;;6.28;61.48;100181.88;5020527;28;20026;-74
2022/11/16 10:13:58;;;;;;;15.43;9.02;;;;;;;6.21;61.46;100182.97;5018817;28;20041;-71
2022/11/16 10:16:48;;;;;;;14.82;8.20;;;;;;;6.26;61.64;100189.69;5021192;28;20309;-72
2022/11/16 10:19:20;;;;;;;15.60;8.48;;;;;;;6.31;61.68;100186.13;5022750;28;20490;-72
2022/11/16 10:21:56;;;;;;;15.82;9.30;;;;;;;6.37;61.39;100178.97;5022182;28;20037;-73
2022/11/16 10:24:45;;;;;;;16.00;8.95;;;;;;;6.29;61.42;100170.63;5020886;28;20041;-73
2022/11/16 10:27:38;;;;;;;14.27;8.40;;;;;;;6.33;61.50;100182.59;5003053;28;20069;-73
2022/11/16 10:30:14;;;;;;;12.43;9.00;;;;;;;6.50;60.95;100180.25;5023670;28;20056;-74
2022/11/16 10:33:01;;;;;;;13.02;8.32;;;;;;;6.21;62.16;100181.19;5021743;28;20041;-74
2022/11/16 10:35:30;;;;;;;16.05;9.13;;;;;;;6.60;60.91;100178.22;5021806;28;20041;-71
2022/11/16 10:38:02;;;;;;;13.27;8.48;;;;;;;6.53;60.87;100171.53;5025337;28;20045;-72
2022/11/16 10:40:38;;;;;;;14.88;8.52;;;;;;;6.21;61.92;100180.34;5021618;28;20296;-71
2022/11/16 10:43:12;;;;;;;15.65;9.43;;;;;;;6.19;61.93;100174.38;5022045;28;20322;-74
2022/11/16 10:45:58;;;;;;;16.17;8.75;;;;;;;6.03;62.29;100177.47;5005207;28;20120;-75
2022/11/16 10:48:38;;;;;;;15.40;8.27;;;;;;;6.22;61.84;100189.84;5020951;28;20045;-74
2022/11/16 10:51:04;;;;;;;19.10;9.57;;;;;;;6.08;62.10;100195.47;5013000;28;20276;-73
2022/11/16 10:53:39;;;;;;;15.68;9.15;;;;;;;6.01;62.06;100187.03;5021848;28;20521;-74
2022/11/16 10:56:16;;;;;;;15.07;8.55;;;;;;;6.27;61.72;100190.53;5007933;28;20121;-74
2022/11/16 10:59:00;;;;;;;17.98;9.73;;;;;;;6.11;62.07;100194.56;5018939;28;20065;-75
2022/11/16 11:01:57;;;;;;;16.67;8.52;;;;;;;6.25;61.77;100187.16;5022465;28;20041;-75
2022/11/16 11:04:28;;;;;;;13.73;8.20;;;;;;;5.96;62.20;100186.34;5020515;28;20049;-74
2022/11/16 11:07:01;;;;;;;14.32;8.55;;;;;;;6.26;61.54;100181.03;5023011;28;20565;-74
2022/11/16 11:09:32;;;;;;;12.65;9.10;;;;;;;6.08;62.02;100191.16;5022060;28;20258;-73
2022/11/16 11:15:09;;;;;;;16.55;9.23;;;;;;;6.30;61.64;100195.66;5020848;28;20033;-73
2022/11/16 11:17:37;;;;;;;17.27;9.65;;;;;;;6.46;61.29;100194.28;5016953;28;20426;-73
2022/11/16 11:20:07;;;;;;;16.83;10.45;;;;;;;6.19;61.48;100203.75;5008399;28;20029;-73
2022/11/16 11:22:40;;;;;;;14.70;10.20;;;;;;;6.31;61.26;100207.75;5021231;28;20560;-73
2022/11/16 11:25:28;;;;;;;16.98;11.15;;;;;;;6.40;61.30;100198.81;5026446;28;20561;-75
2022/11/16 11:28:18;;;;;;;18.02;10.35;;;;;;;6.50;60.89;100200.19;5003759;28;20045;-73
2022/11/16 11:31:07;;;;;;;18.23;9.00;;;;;;;6.65;60.19;100196.22;5022418;28;20441;-74
2022/11/16 11:33:36;;;;;;;18.00;9.85;;;;;;;6.22;61.36;100197.63;4998830;28;20053;-73
2022/11/16 11:36:07;;;;;;;18.65;10.68;;;;;;;6.22;61.41;100197.63;5023194;28;20561;-73
2022/11/16 11:38:34;;;;;;;18.73;10.63;;;;;;;6.16;61.11;100193.47;5019101;28;20072;-72
2022/11/16 11:41:04;;;;;;;17.92;10.93;;;;;;;6.24;60.96;100198.44;5010613;28;20452;-74
2022/11/16 11:43:32;;;;;;;17.33;10.18;;;;;;;6.07;61.60;100204.16;5019482;28;20057;-73
2022/11/16 11:46:23;;;;;;;21.92;10.13;;;;;;;6.09;61.56;100203.22;5009611;28;20059;-72
2022/11/16 11:48:57;;;;;;;14.05;8.57;;;;;;;6.24;60.46;100199.28;5019580;28;20040;-73
2022/11/16 11:51:34;;;;;;;16.33;10.65;;;;;;;6.24;60.84;100193.25;5023428;28;20041;-72
2022/11/16 11:54:02;;;;;;;20.05;11.52;;;;;;;6.32;60.92;100188.66;5020176;28;20037;-73
2022/11/16 11:56:30;;;;;;;14.60;10.43;;;;;;;6.21;60.95;100189.00;5022676;28;20147;-71
2022/11/16 11:58:56;;;;;;;18.17;11.35;;;;;;;6.22;60.85;100182.91;5020946;28;20051;-73
2022/11/16 12:01:30;;;;;;;17.15;10.07;;;;;;;6.22;60.89;100176.88;5025011;28;20037;-70
2022/11/16 12:04:27;;;;;;;18.83;10.73;;;;;;;6.32;60.97;100178.28;5019782;28;20045;-72
2022/11/16 12:07:09;;;;;;;20.52;10.45;;;;;;;6.08;61.29;100180.78;5021456;28;20052;-73
2022/11/16 12:09:43;;;;;;;24.25;11.80;;;;;;;6.00;61.24;100193.13;5021352;28;22102;-73
2022/11/16 12:12:21;;;;;;;22.20;11.95;;;;;;;6.06;61.35;100185.16;5020217;28;20259;-73
2022/11/16 12:14:49;;;;;;;18.73;10.18;;;;;;;6.13;61.19;100180.63;5020235;28;20083;-73
2022/11/16 12:17:54;;;;;;;19.40;11.77;;;;;;;6.06;61.28;100187.75;5008843;28;20054;-73
2022/11/16 12:20:43;;;;;;;20.90;11.38;;;;;;;6.19;61.02;100176.97;5018227;28;20091;-72
2022/11/16 12:23:32;;;;;;;16.40;10.57;;;;;;;6.36;60.68;100179.88;5020407;28;20057;-73
2022/11/16 12:26:08;;;;;;;16.17;10.15;;;;;;;6.22;60.51;100182.06;5000440;28;20037;-74
2022/11/16 12:28:56;;;;;;;18.70;10.25;;;;;;;5.81;61.71;100181.63;5017477;28;20053;-74
2022/11/16 12:31:48;;;;;;;17.95;9.60;;;;;;;5.78;61.85;100181.75;5020393;28;20116;-73
2022/11/16 12:34:36;;;;;;;16.92;9.93;;;;;;;5.70;62.08;100194.09;5008211;28;20044;-74